sensor_id;sensor_type;location;lat;lon;timestamp;pressure;altitude;pressure_sealevel;temperature;humidity
66524;BME280;53350;52.210;5.160;2024-03-08T00:01:13;102002.13;;;5.35;74.90
66524;BME280;53350;52.210;5.160;2024-03-08T00:03:41;101995.19;;;5.31;74.83
66524;BME280;53350;52.210;5.160;2024-03-08T00:06:08;101990.00;;;5.28;74.85
66524;BME280;53350;52.210;5.160;2024-03-08T00:08:35;101984.91;;;5.29;74.60
66524;BME280;53350;52.210;5.160;2024-03-08T00:11:02;101984.72;;;5.21;74.73
66524;BME280;53350;52.210;5.160;2024-03-08T00:13:28;101987.31;;;5.23;74.56
66524;BME280;53350;52.210;5.160;2024-03-08T00:15:55;101974.50;;;5.21;74.41
66524;BME280;53350;52.210;5.160;2024-03-08T00:18:22;101967.53;;;5.16;74.51
66524;BME280;53350;52.210;5.160;2024-03-08T00:20:49;101976.13;;;5.19;74.45
66524;BME280;53350;52.210;5.160;2024-03-08T00:23:16;101971.91;;;5.20;74.52
66524;BME280;53350;52.210;5.160;2024-03-08T00:25:44;101969.34;;;5.20;74.43
66524;BME280;53350;52.210;5.160;2024-03-08T00:28:10;101966.69;;;5.17;74.41
66524;BME280;53350;52.210;5.160;2024-03-08T00:30:40;101974.25;;;5.14;74.37
66524;BME280;53350;52.210;5.160;2024-03-08T00:33:07;101973.38;;;5.12;74.18
66524;BME280;53350;52.210;5.160;2024-03-08T00:35:34;101971.72;;;5.14;74.29
66524;BME280;53350;52.210;5.160;2024-03-08T00:38:00;101975.84;;;5.09;74.35
66524;BME280;53350;52.210;5.160;2024-03-08T00:40:27;101961.38;;;5.09;74.36
66524;BME280;53350;52.210;5.160;2024-03-08T00:42:56;101957.03;;;5.07;74.01
66524;BME280;53350;52.210;5.160;2024-03-08T00:45:22;101954.53;;;5.08;73.81
66524;BME280;53350;52.210;5.160;2024-03-08T00:47:49;101964.63;;;5.03;74.15
66524;BME280;53350;52.210;5.160;2024-03-08T00:50:15;101959.53;;;5.05;74.19
66524;BME280;53350;52.210;5.160;2024-03-08T00:52:43;101959.53;;;5.05;74.02
66524;BME280;53350;52.210;5.160;2024-03-08T00:55:09;101955.22;;;5.02;74.25
66524;BME280;53350;52.210;5.160;2024-03-08T00:57:36;101952.66;;;5.02;74.18
66524;BME280;53350;52.210;5.160;2024-03-08T01:00:06;101946.75;;;5.03;73.91
66524;BME280;53350;52.210;5.160;2024-03-08T01:02:37;101939.88;;;5.02;73.99
66524;BME280;53350;52.210;5.160;2024-03-08T01:05:04;101942.34;;;4.99;73.75
66524;BME280;53350;52.210;5.160;2024-03-08T01:07:33;101944.78;;;4.95;73.80
66524;BME280;53350;52.210;5.160;2024-03-08T01:09:59;101930.16;;;4.89;73.53
66524;BME280;53350;52.210;5.160;2024-03-08T01:12:25;101929.22;;;4.85;73.77
66524;BME280;53350;52.210;5.160;2024-03-08T01:14:52;101928.19;;;4.80;73.98
66524;BME280;53350;52.210;5.160;2024-03-08T01:17:20;101929.25;;;4.87;73.81
66524;BME280;53350;52.210;5.160;2024-03-08T01:19:46;101918.28;;;4.90;73.62
66524;BME280;53350;52.210;5.160;2024-03-08T01:22:13;101909.66;;;4.86;73.57
66524;BME280;53350;52.210;5.160;2024-03-08T01:24:39;101904.47;;;4.83;73.67
66524;BME280;53350;52.210;5.160;2024-03-08T01:27:06;101902.59;;;4.77;73.24
66524;BME280;53350;52.210;5.160;2024-03-08T01:29:34;101910.13;;;4.73;73.39
66524;BME280;53350;52.210;5.160;2024-03-08T01:32:01;101904.94;;;4.69;73.46
66524;BME280;53350;52.210;5.160;2024-03-08T01:34:29;101896.34;;;4.67;73.44
66524;BME280;53350;52.210;5.160;2024-03-08T01:36:55;101896.25;;;4.64;73.79
66524;BME280;53350;52.210;5.160;2024-03-08T01:39:22;101895.38;;;4.62;73.52
66524;BME280;53350;52.210;5.160;2024-03-08T01:41:49;101887.81;;;4.65;73.55
66524;BME280;53350;52.210;5.160;2024-03-08T01:44:15;101887.72;;;4.62;73.71
66524;BME280;53350;52.210;5.160;2024-03-08T01:46:44;101884.09;;;4.56;73.50
66524;BME280;53350;52.210;5.160;2024-03-08T01:49:12;101881.56;;;4.56;73.53
66524;BME280;53350;52.210;5.160;2024-03-08T01:51:41;101871.19;;;4.49;73.66
66524;BME280;53350;52.210;5.160;2024-03-08T01:54:08;101872.00;;;4.48;73.96
66524;BME280;53350;52.210;5.160;2024-03-08T01:56:36;101876.25;;;4.48;73.58
66524;BME280;53350;52.210;5.160;2024-03-08T01:59:03;101876.00;;;4.40;73.77
66524;BME280;53350;52.210;5.160;2024-03-08T02:01:31;101871.13;;;4.48;73.35
66524;BME280;53350;52.210;5.160;2024-03-08T02:03:58;101865.06;;;4.44;73.31
66524;BME280;53350;52.210;5.160;2024-03-08T02:06:25;101866.84;;;4.47;73.13
66524;BME280;53350;52.210;5.160;2024-03-08T02:08:53;101863.06;;;4.34;73.47
66524;BME280;53350;52.210;5.160;2024-03-08T02:11:19;101861.47;;;4.38;73.22
66524;BME280;53350;52.210;5.160;2024-03-08T02:13:46;101862.78;;;4.25;73.83
66524;BME280;53350;52.210;5.160;2024-03-08T02:16:20;101867.94;;;4.26;73.46
66524;BME280;53350;52.210;5.160;2024-03-08T02:18:46;101866.16;;;4.24;73.50
66524;BME280;53350;52.210;5.160;2024-03-08T02:21:16;101853.91;;;4.12;74.36
66524;BME280;53350;52.210;5.160;2024-03-08T02:23:43;101852.06;;;4.08;74.06
66524;BME280;53350;52.210;5.160;2024-03-08T02:26:10;101850.63;;;4.16;73.77
66524;BME280;53350;52.210;5.160;2024-03-08T02:28:36;101840.34;;;4.13;74.17
66524;BME280;53350;52.210;5.160;2024-03-08T02:31:04;101841.75;;;4.03;73.85
66524;BME280;53350;52.210;5.160;2024-03-08T02:33:33;101833.28;;;4.04;74.08
66524;BME280;53350;52.210;5.160;2024-03-08T02:36:00;101829.03;;;4.05;73.89
66524;BME280;53350;52.210;5.160;2024-03-08T02:38:27;101832.47;;;4.07;73.76
66524;BME280;53350;52.210;5.160;2024-03-08T02:40:54;101801.63;;;3.97;73.38
66524;BME280;53350;52.210;5.160;2024-03-08T02:43:21;101828.06;;;4.01;73.98
66524;BME280;53350;52.210;5.160;2024-03-08T02:45:49;101826.31;;;3.98;73.85
66524;BME280;53350;52.210;5.160;2024-03-08T02:48:18;101818.50;;;3.94;74.01
66524;BME280;53350;52.210;5.160;2024-03-08T02:50:45;101816.84;;;3.94;73.66
66524;BME280;53350;52.210;5.160;2024-03-08T02:53:11;101823.81;;;4.00;73.74
66524;BME280;53350;52.210;5.160;2024-03-08T02:55:40;101814.41;;;3.99;73.48
66524;BME280;53350;52.210;5.160;2024-03-08T02:58:07;101804.03;;;3.93;73.67
66524;BME280;53350;52.210;5.160;2024-03-08T03:00:35;101814.91;;;3.87;73.84
66524;BME280;53350;52.210;5.160;2024-03-08T03:03:02;101810.66;;;3.88;73.64
66524;BME280;53350;52.210;5.160;2024-03-08T03:05:29;101802.94;;;3.85;73.55
66524;BME280;53350;52.210;5.160;2024-03-08T03:07:56;101804.41;;;3.78;74.43
66524;BME280;53350;52.210;5.160;2024-03-08T03:10:23;101789.06;;;3.76;73.41
66524;BME280;53350;52.210;5.160;2024-03-08T03:12:51;101801.72;;;3.73;74.44
66524;BME280;53350;52.210;5.160;2024-03-08T03:15:18;101799.22;;;3.75;73.80
66524;BME280;53350;52.210;5.160;2024-03-08T03:17:45;101797.38;;;3.71;73.71
66524;BME280;53350;52.210;5.160;2024-03-08T03:20:13;101785.50;;;3.70;73.82
66524;BME280;53350;52.210;5.160;2024-03-08T03:22:40;101788.81;;;3.67;73.88
66524;BME280;53350;52.210;5.160;2024-03-08T03:25:07;101791.13;;;3.59;74.57
66524;BME280;53350;52.210;5.160;2024-03-08T03:27:34;101784.28;;;3.58;74.28
66524;BME280;53350;52.210;5.160;2024-03-08T03:30:04;101779.28;;;3.61;74.25
66524;BME280;53350;52.210;5.160;2024-03-08T03:32:46;101771.63;;;3.61;74.26
66524;BME280;53350;52.210;5.160;2024-03-08T03:35:13;101777.59;;;3.62;74.28
66524;BME280;53350;52.210;5.160;2024-03-08T03:37:39;101775.22;;;3.67;74.18
66524;BME280;53350;52.210;5.160;2024-03-08T03:40:08;101775.16;;;3.65;74.03
66524;BME280;53350;52.210;5.160;2024-03-08T03:42:35;101779.16;;;3.57;74.00
66524;BME280;53350;52.210;5.160;2024-03-08T03:45:05;101771.41;;;3.54;74.16
66524;BME280;53350;52.210;5.160;2024-03-08T03:47:32;101763.63;;;3.49;74.28
66524;BME280;53350;52.210;5.160;2024-03-08T03:49:58;101761.25;;;3.55;73.97
66524;BME280;53350;52.210;5.160;2024-03-08T03:52:27;101760.25;;;3.50;74.46
66524;BME280;53350;52.210;5.160;2024-03-08T03:54:53;101760.09;;;3.45;74.22
66524;BME280;53350;52.210;5.160;2024-03-08T03:57:20;101754.09;;;3.43;74.34
66524;BME280;53350;52.210;5.160;2024-03-08T03:59:48;101766.66;;;3.39;75.01
66524;BME280;53350;52.210;5.160;2024-03-08T04:02:17;101759.88;;;3.38;74.49
66524;BME280;53350;52.210;5.160;2024-03-08T04:04:46;101761.75;;;3.43;74.22
66524;BME280;53350;52.210;5.160;2024-03-08T04:07:12;101760.78;;;3.40;74.18
66524;BME280;53350;52.210;5.160;2024-03-08T04:09:39;101759.88;;;3.38;74.57
66524;BME280;53350;52.210;5.160;2024-03-08T04:12:06;101751.28;;;3.36;74.67
66524;BME280;53350;52.210;5.160;2024-03-08T04:14:32;101750.59;;;3.40;74.27
66524;BME280;53350;52.210;5.160;2024-03-08T04:16:59;101748.69;;;3.34;74.28
66524;BME280;53350;52.210;5.160;2024-03-08T04:19:27;101752.19;;;3.36;74.42
66524;BME280;53350;52.210;5.160;2024-03-08T04:21:54;101746.19;;;3.36;74.21
66524;BME280;53350;52.210;5.160;2024-03-08T04:24:21;101749.69;;;3.38;73.99
66524;BME280;53350;52.210;5.160;2024-03-08T04:26:47;101742.03;;;3.38;74.15
66524;BME280;53350;52.210;5.160;2024-03-08T04:29:13;101744.69;;;3.41;73.76
66524;BME280;53350;52.210;5.160;2024-03-08T04:31:40;101737.94;;;3.43;73.62
66524;BME280;53350;52.210;5.160;2024-03-08T04:34:06;101739.53;;;3.39;73.63
66524;BME280;53350;52.210;5.160;2024-03-08T04:36:35;101741.25;;;3.40;73.56
66524;BME280;53350;52.210;5.160;2024-03-08T04:39:01;101743.69;;;3.37;73.58
66524;BME280;53350;52.210;5.160;2024-03-08T04:41:28;101735.13;;;3.34;73.65
66524;BME280;53350;52.210;5.160;2024-03-08T04:43:55;101741.78;;;3.30;73.70
66524;BME280;53350;52.210;5.160;2024-03-08T04:46:22;101736.72;;;3.31;73.60
66524;BME280;53350;52.210;5.160;2024-03-08T04:48:49;101734.22;;;3.33;73.78
66524;BME280;53350;52.210;5.160;2024-03-08T04:51:16;101730.78;;;3.31;73.65
66524;BME280;53350;52.210;5.160;2024-03-08T04:53:45;101723.13;;;3.31;73.59
66524;BME280;53350;52.210;5.160;2024-03-08T04:56:12;101731.59;;;3.30;73.44
66524;BME280;53350;52.210;5.160;2024-03-08T04:58:38;101729.84;;;3.27;73.65
66524;BME280;53350;52.210;5.160;2024-03-08T05:01:05;101730.53;;;3.23;73.53
66524;BME280;53350;52.210;5.160;2024-03-08T05:03:31;101725.59;;;3.28;73.20
66524;BME280;53350;52.210;5.160;2024-03-08T05:05:57;101715.31;;;3.25;73.53
66524;BME280;53350;52.210;5.160;2024-03-08T05:08:24;101722.81;;;3.20;73.42
66524;BME280;53350;52.210;5.160;2024-03-08T05:10:52;101723.63;;;3.19;73.26
66524;BME280;53350;52.210;5.160;2024-03-08T05:13:19;101720.28;;;3.20;73.17
66524;BME280;53350;52.210;5.160;2024-03-08T05:15:48;101710.13;;;3.22;72.99
66524;BME280;53350;52.210;5.160;2024-03-08T05:18:15;101716.34;;;3.31;72.28
66524;BME280;53350;52.210;5.160;2024-03-08T05:20:41;101717.19;;;3.30;72.19
66524;BME280;53350;52.210;5.160;2024-03-08T05:23:08;101711.22;;;3.30;72.37
66524;BME280;53350;52.210;5.160;2024-03-08T05:25:34;101707.69;;;3.25;72.67
66524;BME280;53350;52.210;5.160;2024-03-08T05:28:03;101707.00;;;3.30;71.88
66524;BME280;53350;52.210;5.160;2024-03-08T05:30:29;101699.31;;;3.29;71.79
66524;BME280;53350;52.210;5.160;2024-03-08T05:32:57;101711.13;;;3.27;72.02
66524;BME280;53350;52.210;5.160;2024-03-08T05:35:23;101706.91;;;3.27;71.86
66524;BME280;53350;52.210;5.160;2024-03-08T05:37:50;101708.63;;;3.28;72.02
66524;BME280;53350;52.210;5.160;2024-03-08T05:40:16;101707.91;;;3.33;71.53
66524;BME280;53350;52.210;5.160;2024-03-08T05:42:43;101710.38;;;3.29;71.86
66524;BME280;53350;52.210;5.160;2024-03-08T05:45:11;101699.31;;;3.29;72.21
66524;BME280;53350;52.210;5.160;2024-03-08T05:47:38;101706.34;;;3.36;71.05
66524;BME280;53350;52.210;5.160;2024-03-08T05:50:06;101697.69;;;3.31;71.55
66524;BME280;53350;52.210;5.160;2024-03-08T05:52:35;101697.78;;;3.34;71.48
66524;BME280;53350;52.210;5.160;2024-03-08T05:55:03;101699.50;;;3.35;71.22
66524;BME280;53350;52.210;5.160;2024-03-08T05:57:32;101697.69;;;3.31;71.57
66524;BME280;53350;52.210;5.160;2024-03-08T05:59:58;101690.00;;;3.29;71.41
66524;BME280;53350;52.210;5.160;2024-03-08T06:02:26;101697.50;;;3.25;71.66
66524;BME280;53350;52.210;5.160;2024-03-08T06:04:53;101696.81;;;3.30;71.30
66524;BME280;53350;52.210;5.160;2024-03-08T06:07:19;101687.25;;;3.23;71.55
66524;BME280;53350;52.210;5.160;2024-03-08T06:09:45;101685.81;;;3.31;71.30
66524;BME280;53350;52.210;5.160;2024-03-08T06:12:13;101685.03;;;3.34;71.22
66524;BME280;53350;52.210;5.160;2024-03-08T06:14:44;101679.81;;;3.29;71.26
66524;BME280;53350;52.210;5.160;2024-03-08T06:17:10;101669.72;;;3.33;71.27
66524;BME280;53350;52.210;5.160;2024-03-08T06:19:38;101682.97;;;3.22;71.55
66524;BME280;53350;52.210;5.160;2024-03-08T06:22:04;101680.00;;;3.36;70.56
66524;BME280;53350;52.210;5.160;2024-03-08T06:24:31;101677.34;;;3.33;70.83
66524;BME280;53350;52.210;5.160;2024-03-08T06:26:58;101684.28;;;3.37;70.55
66524;BME280;53350;52.210;5.160;2024-03-08T06:29:24;101680.03;;;3.37;70.63
66524;BME280;53350;52.210;5.160;2024-03-08T06:31:51;101680.97;;;3.39;70.68
66524;BME280;53350;52.210;5.160;2024-03-08T06:34:18;101690.13;;;3.34;70.64
66524;BME280;53350;52.210;5.160;2024-03-08T06:36:46;101685.22;;;3.40;70.21
66524;BME280;53350;52.210;5.160;2024-03-08T06:39:12;101680.75;;;3.33;70.84
66524;BME280;53350;52.210;5.160;2024-03-08T06:41:39;101672.97;;;3.28;70.87
66524;BME280;53350;52.210;5.160;2024-03-08T06:44:05;101673.69;;;3.24;71.36
66524;BME280;53350;52.210;5.160;2024-03-08T06:46:33;101678.16;;;3.31;70.93
66524;BME280;53350;52.210;5.160;2024-03-08T06:48:59;101675.78;;;3.36;70.85
66524;BME280;53350;52.210;5.160;2024-03-08T06:51:26;101668.94;;;3.35;70.60
66524;BME280;53350;52.210;5.160;2024-03-08T06:53:54;101678.22;;;3.33;70.93
66524;BME280;53350;52.210;5.160;2024-03-08T06:56:20;101674.66;;;3.28;71.20
66524;BME280;53350;52.210;5.160;2024-03-08T06:58:47;101667.97;;;3.31;71.04
66524;BME280;53350;52.210;5.160;2024-03-08T07:01:14;101666.63;;;3.43;70.73
66524;BME280;53350;52.210;5.160;2024-03-08T07:03:41;101665.78;;;3.42;70.41
66524;BME280;53350;52.210;5.160;2024-03-08T07:06:09;101658.53;;;3.56;69.96
66524;BME280;53350;52.210;5.160;2024-03-08T07:08:35;101664.59;;;3.60;69.69
66524;BME280;53350;52.210;5.160;2024-03-08T07:11:03;101662.00;;;3.58;70.17
66524;BME280;53350;52.210;5.160;2024-03-08T07:13:30;101656.88;;;3.57;70.07
66524;BME280;53350;52.210;5.160;2024-03-08T07:15:56;101657.09;;;3.64;69.81
66524;BME280;53350;52.210;5.160;2024-03-08T07:18:25;101659.88;;;3.72;69.62
66524;BME280;53350;52.210;5.160;2024-03-08T07:20:52;101653.28;;;3.80;69.14
66524;BME280;53350;52.210;5.160;2024-03-08T07:23:19;101658.69;;;3.90;69.10
66524;BME280;53350;52.210;5.160;2024-03-08T07:25:59;101655.47;;;3.97;68.39
66524;BME280;53350;52.210;5.160;2024-03-08T07:28:27;101651.31;;;4.00;68.45
66524;BME280;53350;52.210;5.160;2024-03-08T07:30:56;101645.59;;;4.09;68.18
66524;BME280;53350;52.210;5.160;2024-03-08T07:33:33;101649.13;;;4.13;68.48
66524;BME280;53350;52.210;5.160;2024-03-08T07:36:00;101635.41;;;4.09;68.23
66524;BME280;53350;52.210;5.160;2024-03-08T07:38:26;101634.91;;;4.23;68.13
66524;BME280;53350;52.210;5.160;2024-03-08T07:40:53;101637.69;;;4.30;67.79
66524;BME280;53350;52.210;5.160;2024-03-08T07:43:19;101634.47;;;4.38;67.40
66524;BME280;53350;52.210;5.160;2024-03-08T07:45:48;101633.09;;;4.50;66.94
66524;BME280;53350;52.210;5.160;2024-03-08T07:48:16;101631.53;;;4.57;66.95
66524;BME280;53350;52.210;5.160;2024-03-08T07:50:42;101638.59;;;4.67;66.47
66524;BME280;53350;52.210;5.160;2024-03-08T07:53:09;101619.34;;;4.80;65.77
66524;BME280;53350;52.210;5.160;2024-03-08T07:55:36;101621.16;;;4.84;65.87
66524;BME280;53350;52.210;5.160;2024-03-08T07:58:03;101623.81;;;4.89;65.03
66524;BME280;53350;52.210;5.160;2024-03-08T08:00:29;101616.28;;;4.95;64.74
66524;BME280;53350;52.210;5.160;2024-03-08T08:02:58;101611.31;;;5.00;64.99
66524;BME280;53350;52.210;5.160;2024-03-08T08:05:24;101611.50;;;5.09;64.79
66524;BME280;53350;52.210;5.160;2024-03-08T08:07:51;101607.44;;;5.17;64.62
66524;BME280;53350;52.210;5.160;2024-03-08T08:10:18;101612.84;;;5.31;63.56
66524;BME280;53350;52.210;5.160;2024-03-08T08:12:46;101603.53;;;5.33;63.02
66524;BME280;53350;52.210;5.160;2024-03-08T08:15:13;101608.59;;;5.30;63.61
66524;BME280;53350;52.210;5.160;2024-03-08T08:17:40;101597.56;;;5.33;63.13
66524;BME280;53350;52.210;5.160;2024-03-08T08:20:09;101592.59;;;5.39;63.22
66524;BME280;53350;52.210;5.160;2024-03-08T08:22:37;101591.06;;;5.49;63.10
66524;BME280;53350;52.210;5.160;2024-03-08T08:25:04;101580.25;;;5.59;63.19
66524;BME280;53350;52.210;5.160;2024-03-08T08:27:30;101582.84;;;5.62;62.63
66524;BME280;53350;52.210;5.160;2024-03-08T08:29:57;101577.03;;;5.69;62.46
66524;BME280;53350;52.210;5.160;2024-03-08T08:32:23;101573.84;;;5.81;62.71
66524;BME280;53350;52.210;5.160;2024-03-08T08:34:49;101576.63;;;5.95;61.57
66524;BME280;53350;52.210;5.160;2024-03-08T08:37:18;101572.56;;;6.02;61.95
66524;BME280;53350;52.210;5.160;2024-03-08T08:39:44;101570.00;;;6.02;62.29
66524;BME280;53350;52.210;5.160;2024-03-08T08:42:11;101564.16;;;6.09;61.71
66524;BME280;53350;52.210;5.160;2024-03-08T08:44:38;101559.09;;;6.12;60.95
66524;BME280;53350;52.210;5.160;2024-03-08T08:47:04;101560.03;;;6.17;61.01
66524;BME280;53350;52.210;5.160;2024-03-08T08:49:31;101561.84;;;6.23;60.88
66524;BME280;53350;52.210;5.160;2024-03-08T08:51:57;101553.47;;;6.32;60.47
66524;BME280;53350;52.210;5.160;2024-03-08T08:54:25;101556.09;;;6.36;60.01
66524;BME280;53350;52.210;5.160;2024-03-08T08:56:52;101551.06;;;6.41;59.81
66524;BME280;53350;52.210;5.160;2024-03-08T08:59:19;101554.47;;;6.43;60.09
66524;BME280;53350;52.210;5.160;2024-03-08T09:01:48;101549.34;;;6.41;59.89
66524;BME280;53350;52.210;5.160;2024-03-08T09:04:17;101550.38;;;6.53;59.10
66524;BME280;53350;52.210;5.160;2024-03-08T09:06:45;101541.69;;;6.43;60.25
66524;BME280;53350;52.210;5.160;2024-03-08T09:09:11;101547.09;;;6.61;59.41
66524;BME280;53350;52.210;5.160;2024-03-08T09:11:39;101544.56;;;6.63;59.42
66524;BME280;53350;52.210;5.160;2024-03-08T09:14:07;101536.25;;;6.76;59.10
66524;BME280;53350;52.210;5.160;2024-03-08T09:16:34;101521.69;;;6.74;59.47
66524;BME280;53350;52.210;5.160;2024-03-08T09:19:00;101526.94;;;6.83;59.44
66524;BME280;53350;52.210;5.160;2024-03-08T09:21:26;101519.44;;;6.94;58.60
66524;BME280;53350;52.210;5.160;2024-03-08T09:23:53;101512.63;;;6.97;58.57
66524;BME280;53350;52.210;5.160;2024-03-08T09:26:19;101508.44;;;7.03;58.96
66524;BME280;53350;52.210;5.160;2024-03-08T09:28:48;101505.97;;;7.10;58.73
66524;BME280;53350;52.210;5.160;2024-03-08T09:31:15;101499.25;;;7.19;59.10
66524;BME280;53350;52.210;5.160;2024-03-08T09:33:42;101505.50;;;7.44;59.50
66524;BME280;53350;52.210;5.160;2024-03-08T09:36:08;101494.47;;;7.49;58.62
66524;BME280;53350;52.210;5.160;2024-03-08T09:38:35;101503.16;;;7.62;57.70
66524;BME280;53350;52.210;5.160;2024-03-08T09:41:01;101486.94;;;7.63;57.64
66524;BME280;53350;52.210;5.160;2024-03-08T09:43:29;101487.81;;;7.69;57.97
66524;BME280;53350;52.210;5.160;2024-03-08T09:45:57;101483.63;;;7.74;57.50
66524;BME280;53350;52.210;5.160;2024-03-08T09:48:24;101478.50;;;7.77;56.95
66524;BME280;53350;52.210;5.160;2024-03-08T09:50:52;101465.72;;;7.80;56.76
66524;BME280;53350;52.210;5.160;2024-03-08T09:53:19;101470.84;;;7.80;56.63
66524;BME280;53350;52.210;5.160;2024-03-08T09:55:47;101465.56;;;7.66;56.94
66524;BME280;53350;52.210;5.160;2024-03-08T09:58:16;101456.22;;;7.71;56.74
66524;BME280;53350;52.210;5.160;2024-03-08T10:00:57;101457.19;;;7.79;57.04
66524;BME280;53350;52.210;5.160;2024-03-08T10:03:24;101449.56;;;7.92;56.73
66524;BME280;53350;52.210;5.160;2024-03-08T10:05:51;101456.38;;;7.87;56.55
66524;BME280;53350;52.210;5.160;2024-03-08T10:08:17;101444.44;;;7.92;56.33
66524;BME280;53350;52.210;5.160;2024-03-08T10:10:45;101446.19;;;7.97;56.37
66524;BME280;53350;52.210;5.160;2024-03-08T10:13:13;101436.78;;;7.98;56.33
66524;BME280;53350;52.210;5.160;2024-03-08T10:15:42;101442.03;;;8.10;55.98
66524;BME280;53350;52.210;5.160;2024-03-08T10:18:10;101435.25;;;8.15;55.79
66524;BME280;53350;52.210;5.160;2024-03-08T10:20:36;101425.84;;;8.21;55.54
66524;BME280;53350;52.210;5.160;2024-03-08T10:23:03;101419.88;;;8.22;55.35
66524;BME280;53350;52.210;5.160;2024-03-08T10:25:30;101410.47;;;8.22;55.82
66524;BME280;53350;52.210;5.160;2024-03-08T10:27:56;101407.09;;;8.31;55.44
66524;BME280;53350;52.210;5.160;2024-03-08T10:30:23;101418.22;;;8.30;55.87
66524;BME280;53350;52.210;5.160;2024-03-08T10:32:50;101400.31;;;8.44;55.36
66524;BME280;53350;52.210;5.160;2024-03-08T10:35:18;101400.38;;;8.48;55.17
66524;BME280;53350;52.210;5.160;2024-03-08T10:37:47;101388.31;;;8.38;55.42
66524;BME280;53350;52.210;5.160;2024-03-08T10:40:17;101384.97;;;8.47;55.12
66524;BME280;53350;52.210;5.160;2024-03-08T10:42:51;101379.88;;;8.55;54.98
66524;BME280;53350;52.210;5.160;2024-03-08T10:45:26;101366.25;;;8.66;54.46
66524;BME280;53350;52.210;5.160;2024-03-08T10:48:09;101361.97;;;8.75;54.11
66524;BME280;53350;52.210;5.160;2024-03-08T10:50:37;101350.00;;;8.77;54.64
66524;BME280;53350;52.210;5.160;2024-03-08T10:53:06;101357.72;;;8.83;54.97
66524;BME280;53350;52.210;5.160;2024-03-08T10:55:33;101335.50;;;8.85;54.55
66524;BME280;53350;52.210;5.160;2024-03-08T10:58:00;101340.66;;;8.97;54.45
66524;BME280;53350;52.210;5.160;2024-03-08T11:00:26;101334.66;;;9.06;54.28
66524;BME280;53350;52.210;5.160;2024-03-08T11:02:53;101334.69;;;9.17;53.04
66524;BME280;53350;52.210;5.160;2024-03-08T11:05:32;101330.41;;;9.16;53.34
66524;BME280;53350;52.210;5.160;2024-03-08T11:08:02;101340.69;;;9.20;52.66
66524;BME280;53350;52.210;5.160;2024-03-08T11:10:29;101333.81;;;9.18;52.47
66524;BME280;53350;52.210;5.160;2024-03-08T11:12:55;101325.28;;;9.20;51.91
66524;BME280;53350;52.210;5.160;2024-03-08T11:15:24;101325.28;;;9.20;52.00
66524;BME280;53350;52.210;5.160;2024-03-08T11:17:51;101304.69;;;9.23;52.43
66524;BME280;53350;52.210;5.160;2024-03-08T11:20:20;101301.28;;;9.28;52.64
66524;BME280;53350;52.210;5.160;2024-03-08T11:22:52;101303.00;;;9.29;52.68
66524;BME280;53350;52.210;5.160;2024-03-08T11:25:33;101293.59;;;9.40;51.97
66524;BME280;53350;52.210;5.160;2024-03-08T11:28:15;101292.72;;;9.39;51.88
66524;BME280;53350;52.210;5.160;2024-03-08T11:30:46;101287.59;;;9.30;51.92
66524;BME280;53350;52.210;5.160;2024-03-08T11:33:35;101281.56;;;9.44;51.33
66524;BME280;53350;52.210;5.160;2024-03-08T11:36:02;101273.00;;;9.43;52.00
66524;BME280;53350;52.210;5.160;2024-03-08T11:38:31;101264.44;;;9.52;51.56
66524;BME280;53350;52.210;5.160;2024-03-08T11:40:59;101257.56;;;9.55;51.47
66524;BME280;53350;52.210;5.160;2024-03-08T11:43:26;101254.13;;;9.63;51.51
66524;BME280;53350;52.210;5.160;2024-03-08T11:46:07;101246.41;;;9.70;51.20
66524;BME280;53350;52.210;5.160;2024-03-08T11:48:34;101242.09;;;9.77;51.15
66524;BME280;53350;52.210;5.160;2024-03-08T11:51:01;101236.09;;;9.78;50.74
66524;BME280;53350;52.210;5.160;2024-03-08T11:53:28;101230.09;;;9.78;50.88
66524;BME280;53350;52.210;5.160;2024-03-08T11:55:55;101221.47;;;9.83;50.95
66524;BME280;53350;52.210;5.160;2024-03-08T11:58:32;101212.03;;;9.90;50.42
66524;BME280;53350;52.210;5.160;2024-03-08T12:01:02;101212.91;;;9.94;50.47
66524;BME280;53350;52.210;5.160;2024-03-08T12:03:30;101211.13;;;10.00;50.10
66524;BME280;53350;52.210;5.160;2024-03-08T12:05:59;101192.28;;;10.00;50.34
66524;BME280;53350;52.210;5.160;2024-03-08T12:08:26;101207.66;;;10.12;50.39
66524;BME280;53350;52.210;5.160;2024-03-08T12:10:53;101185.41;;;10.00;50.67
66524;BME280;53350;52.210;5.160;2024-03-08T12:13:24;101193.06;;;10.17;50.25
66524;BME280;53350;52.210;5.160;2024-03-08T12:15:56;101178.41;;;10.29;49.45
66524;BME280;53350;52.210;5.160;2024-03-08T12:18:24;101187.84;;;10.33;49.57
66524;BME280;53350;52.210;5.160;2024-03-08T12:20:50;101183.50;;;10.41;49.53
66524;BME280;53350;52.210;5.160;2024-03-08T12:23:17;101173.19;;;10.41;49.12
66524;BME280;53350;52.210;5.160;2024-03-08T12:25:43;101171.44;;;10.51;48.93
66524;BME280;53350;52.210;5.160;2024-03-08T12:28:11;101165.34;;;10.59;49.07
66524;BME280;53350;52.210;5.160;2024-03-08T12:30:46;101157.56;;;10.67;48.46
66524;BME280;53350;52.210;5.160;2024-03-08T12:33:15;101160.13;;;10.72;47.91
66524;BME280;53350;52.210;5.160;2024-03-08T12:35:50;101154.09;;;10.73;47.73
66524;BME280;53350;52.210;5.160;2024-03-08T12:38:19;101151.50;;;10.73;48.05
66524;BME280;53350;52.210;5.160;2024-03-08T12:40:50;101146.38;;;10.71;47.69
66524;BME280;53350;52.210;5.160;2024-03-08T12:43:17;101143.66;;;10.90;46.86
66524;BME280;53350;52.210;5.160;2024-03-08T12:45:44;101143.63;;;10.91;47.07
66524;BME280;53350;52.210;5.160;2024-03-08T12:48:12;101142.75;;;10.94;46.75
66524;BME280;53350;52.210;5.160;2024-03-08T12:50:41;101126.41;;;10.98;46.90
66524;BME280;53350;52.210;5.160;2024-03-08T12:53:09;101123.75;;;11.04;46.68
66524;BME280;53350;52.210;5.160;2024-03-08T12:55:35;101111.69;;;11.06;47.27
66524;BME280;53350;52.210;5.160;2024-03-08T12:58:02;101121.06;;;11.17;47.16
66524;BME280;53350;52.210;5.160;2024-03-08T13:00:28;101126.94;;;11.29;46.24
66524;BME280;53350;52.210;5.160;2024-03-08T13:02:55;101109.75;;;11.30;46.11